Time;durP1;ratioP1;P1;durP2;ratioP2;P2;SDS_P1;SDS_P2;PMS_P1;PMS_P2;Temp;Humidity;BMP_temperature;BMP_pressure;BME280_temperature;BME280_humidity;BME280_pressure;Samples;Min_cycle;Max_cycle;Signal;HPM_P1;HPM_P2
2021/10/16 00:00:42;;;;;;;212.47;36.80;;;8.70;99.90;;;;;;6159076;23;20418;-78
2021/10/16 00:03:11;;;;;;;232.23;34.50;;;8.70;99.90;;;;;;6185503;23;20419;-78
2021/10/16 00:05:40;;;;;;;223.70;34.57;;;8.70;99.90;;;;;;6185640;23;20471;-78
2021/10/16 00:08:08;;;;;;;188.63;30.10;;;8.60;99.90;;;;;;6195498;23;20439;-78
2021/10/16 00:10:37;;;;;;;140.77;27.43;;;8.60;99.90;;;;;;6159071;23;20420;-77
2021/10/16 00:13:05;;;;;;;142.70;28.47;;;8.60;99.90;;;;;;6159115;23;20423;-78
2021/10/16 00:15:33;;;;;;;137.83;30.53;;;8.60;99.90;;;;;;6185318;23;20993;-78
2021/10/16 00:18:02;;;;;;;153.27;31.57;;;8.60;99.90;;;;;;6185139;23;20442;-78
2021/10/16 00:20:30;;;;;;;182.20;38.17;;;8.60;99.90;;;;;;6159333;23;20509;-77
2021/10/16 00:22:59;;;;;;;148.10;34.60;;;8.50;99.90;;;;;;6185718;23;20418;-77
2021/10/16 00:25:28;;;;;;;162.60;32.13;;;8.50;99.90;;;;;;6158861;23;20412;-78
2021/10/16 00:27:56;;;;;;;185.00;37.17;;;8.50;99.90;;;;;;6158728;23;20487;-78
2021/10/16 00:30:24;;;;;;;143.43;27.37;;;8.50;99.90;;;;;;6158739;23;20419;-78
2021/10/16 00:32:52;;;;;;;175.77;34.20;;;8.50;99.90;;;;;;6159900;23;20494;-78
2021/10/16 00:35:21;;;;;;;155.33;32.27;;;8.50;99.90;;;;;;6197544;23;20430;-77
2021/10/16 00:37:49;;;;;;;104.20;23.60;;;8.50;99.90;;;;;;6160649;23;20404;-78
2021/10/16 00:40:20;;;;;;;132.07;30.03;;;8.40;99.90;;;;;;6186677;23;20422;-78
2021/10/16 00:42:51;;;;;;;162.57;28.80;;;8.40;99.90;;;;;;6160671;23;20419;-78
2021/10/16 00:45:21;;;;;;;11.48;4.50;;;8.50;99.90;;;;;;6159497;23;20871;-77
2021/10/16 00:47:50;;;;;;;262.73;56.43;;;8.50;99.90;;;;;;6160333;23;20198;-78
2021/10/16 00:50:21;;;;;;;154.33;31.30;;;8.50;99.90;;;;;;6160664;23;20499;-77
2021/10/16 00:52:50;;;;;;;151.03;29.43;;;8.50;99.90;;;;;;6160496;23;20899;-78
2021/10/16 00:55:21;;;;;;;195.17;35.50;;;8.50;99.90;;;;;;6187267;23;20442;-76
2021/10/16 00:57:50;;;;;;;138.17;32.57;;;8.50;99.90;;;;;;6160571;23;20415;-76
2021/10/16 01:00:19;;;;;;;196.53;29.10;;;8.50;99.90;;;;;;6160602;23;20451;-76
2021/10/16 01:02:48;;;;;;;147.13;29.63;;;8.50;99.90;;;;;;6160763;23;20443;-75
2021/10/16 01:05:18;;;;;;;152.30;30.07;;;8.50;99.90;;;;;;6160951;23;20419;-76
2021/10/16 01:07:48;;;;;;;189.10;40.63;;;8.50;99.90;;;;;;6196863;23;20470;-75
2021/10/16 01:10:16;;;;;;;188.47;34.97;;;8.50;99.90;;;;;;6160538;23;20424;-76
2021/10/16 01:12:47;;;;;;;183.00;40.83;;;8.40;99.90;;;;;;6160561;23;20933;-76
2021/10/16 01:15:17;;;;;;;159.40;23.17;;;8.40;99.90;;;;;;6160437;23;20490;-76
2021/10/16 01:17:47;;;;;;;174.07;33.47;;;8.40;99.90;;;;;;6160919;23;20463;-75
2021/10/16 01:20:17;;;;;;;149.67;39.03;;;8.40;99.90;;;;;;6160525;23;20435;-76
2021/10/16 01:22:48;;;;;;;161.73;29.83;;;8.40;99.90;;;;;;6196848;23;20422;-76
2021/10/16 01:25:18;;;;;;;197.67;33.83;;;8.30;99.90;;;;;;6160491;23;20408;-76
2021/10/16 01:27:47;;;;;;;94.63;26.47;;;8.30;99.90;;;;;;6160549;23;20439;-76
2021/10/16 01:30:18;;;;;;;169.03;33.73;;;8.30;99.90;;;;;;6196676;23;20411;-76
2021/10/16 01:32:47;;;;;;;143.53;36.00;;;8.30;99.90;;;;;;6160403;23;20438;-76
2021/10/16 01:35:15;;;;;;;248.97;35.67;;;8.20;99.90;;;;;;6160325;23;20435;-76
2021/10/16 01:37:45;;;;;;;54.57;12.70;;;8.20;99.90;;;;;;6160145;23;20426;-76
2021/10/16 01:40:16;;;;;;;259.60;53.63;;;8.20;99.90;;;;;;6160195;23;20435;-78
2021/10/16 01:42:46;;;;;;;173.20;37.73;;;8.20;99.90;;;;;;6160039;23;20470;-78
2021/10/16 01:45:20;;;;;;;154.17;23.83;;;8.20;99.90;;;;;;6160094;23;20411;-78
2021/10/16 01:47:53;;;;;;;171.00;38.47;;;8.20;99.90;;;;;;6159822;23;20899;-78
2021/10/16 01:50:26;;;;;;;97.70;20.90;;;8.20;99.90;;;;;;6160625;23;20415;-78
2021/10/16 01:52:54;;;;;;;110.83;20.67;;;8.20;99.90;;;;;;6160054;23;20419;-77
2021/10/16 01:55:26;;;;;;;172.57;36.70;;;8.20;99.90;;;;;;6159870;23;20483;-78
2021/10/16 01:57:55;;;;;;;130.00;24.57;;;8.20;99.90;;;;;;6159841;23;20506;-78
2021/10/16 02:00:23;;;;;;;180.63;37.83;;;8.20;99.90;;;;;;6159922;23;20416;-78
2021/10/16 02:02:56;;;;;;;124.10;22.77;;;8.20;99.90;;;;;;6159857;23;20498;-76
2021/10/16 02:05:30;;;;;;;104.33;17.80;;;8.20;99.90;;;;;;6161091;23;20777;-76
2021/10/16 02:08:17;;;;;;;124.30;20.83;;;8.20;99.90;;;;;;6196353;23;20437;-76
2021/10/16 02:10:46;;;;;;;108.40;16.23;;;8.20;99.90;;;;;;6196417;23;20483;-75
2021/10/16 02:13:16;;;;;;;164.17;26.10;;;8.20;99.90;;;;;;6160619;23;20384;-75
2021/10/16 02:16:03;;;;;;;115.03;16.50;;;8.20;99.90;;;;;;6196891;23;20470;-76
2021/10/16 02:18:41;;;;;;;160.13;26.30;;;8.20;99.90;;;;;;6160701;23;20439;-76
2021/10/16 02:21:09;;;;;;;140.37;20.13;;;8.20;99.90;;;;;;6160071;23;20941;-76
2021/10/16 02:23:39;;;;;;;144.97;23.77;;;8.20;99.90;;;;;;6159902;23;20406;-76
2021/10/16 02:26:09;;;;;;;203.50;30.83;;;8.20;99.90;;;;;;6159374;23;20422;-76
2021/10/16 02:28:38;;;;;;;189.50;29.70;;;8.20;99.90;;;;;;6159962;23;20442;-76
2021/10/16 02:31:27;;;;;;;128.73;19.03;;;8.20;99.90;;;;;;6159872;23;20407;-76
2021/10/16 02:33:58;;;;;;;192.77;24.30;;;8.20;99.90;;;;;;6159875;23;20411;-76
2021/10/16 02:36:37;;;;;;;169.03;29.97;;;8.20;99.90;;;;;;6159564;23;20427;-76
2021/10/16 02:39:05;;;;;;;10.95;5.10;;;8.20;99.90;;;;;;6157969;23;20415;-79
2021/10/16 02:41:37;;;;;;;190.23;37.10;;;8.30;99.90;;;;;;6159831;23;20218;-76
2021/10/16 02:44:06;;;;;;;10.88;5.15;;;8.30;99.90;;;;;;6158764;23;20415;-75
2021/10/16 02:46:42;;;;;;;168.23;43.33;;;8.40;99.90;;;;;;6159811;23;20160;-76
2021/10/16 02:49:10;;;;;;;125.60;24.50;;;8.40;99.90;;;;;;6159386;23;20844;-76
2021/10/16 02:51:39;;;;;;;116.73;27.47;;;8.40;99.90;;;;;;6161015;23;20474;-76
2021/10/16 02:54:07;;;;;;;167.13;28.37;;;8.40;99.90;;;;;;6159536;23;20442;-76
2021/10/16 02:56:36;;;;;;;123.50;20.60;;;8.40;99.90;;;;;;6159064;23;20490;-76
2021/10/16 02:59:09;;;;;;;132.03;34.40;;;8.40;99.90;;;;;;6159882;23;20441;-75
2021/10/16 03:01:46;;;;;;;190.83;31.90;;;8.40;99.90;;;;;;6160682;23;20411;-76
2021/10/16 03:04:14;;;;;;;143.77;24.73;;;8.40;99.90;;;;;;6159568;23;20426;-76
2021/10/16 03:06:45;;;;;;;188.27;31.07;;;8.40;99.90;;;;;;6159661;23;20814;-76
2021/10/16 03:09:17;;;;;;;186.43;30.77;;;8.40;99.90;;;;;;6159244;23;20519;-76
2021/10/16 03:11:47;;;;;;;118.33;20.13;;;8.40;99.90;;;;;;6159568;23;20511;-76
2021/10/16 03:14:17;;;;;;;109.97;27.63;;;8.40;99.90;;;;;;6159745;23;20506;-76
2021/10/16 03:16:50;;;;;;;109.70;29.97;;;8.40;99.90;;;;;;6159707;23;20442;-75
2021/10/16 03:19:20;;;;;;;127.60;29.30;;;8.50;99.90;;;;;;6159601;23;20435;-75
2021/10/16 03:21:59;;;;;;;151.67;23.07;;;8.50;99.90;;;;;;6159765;23;20416;-77
2021/10/16 03:24:35;;;;;;;162.60;35.60;;;8.50;99.90;;;;;;6159606;23;20910;-76
2021/10/16 03:27:05;;;;;;;112.07;31.17;;;8.50;99.90;;;;;;6196009;23;20422;-76
2021/10/16 03:29:34;;;;;;;134.27;19.13;;;8.50;99.90;;;;;;6159526;23;20443;-75
2021/10/16 03:32:03;;;;;;;105.03;13.83;;;8.50;99.90;;;;;;6159388;23;20623;-76
2021/10/16 03:34:31;;;;;;;169.87;26.33;;;8.50;99.90;;;;;;6159334;23;20423;-76
2021/10/16 03:37:00;;;;;;;104.47;23.30;;;8.50;99.90;;;;;;6159069;23;20989;-76
2021/10/16 03:39:31;;;;;;;257.53;42.63;;;8.50;99.90;;;;;;6159042;23;20953;-76
2021/10/16 03:41:59;;;;;;;96.60;22.60;;;8.50;99.90;;;;;;6159304;23;20419;-76
2021/10/16 03:44:28;;;;;;;10.27;4.50;;;8.50;99.90;;;;;;6158492;23;20425;-76
2021/10/16 03:46:58;;;;;;;194.70;39.83;;;8.60;99.90;;;;;;6159303;23;20157;-76
2021/10/16 03:49:27;;;;;;;121.00;28.27;;;8.70;99.90;;;;;;6159102;23;20442;-76
2021/10/16 03:51:55;;;;;;;122.33;19.77;;;8.60;99.90;;;;;;6186162;23;20423;-76
2021/10/16 03:54:24;;;;;;;135.90;25.97;;;8.60;99.90;;;;;;6159303;23;20451;-76
2021/10/16 03:56:52;;;;;;;145.00;26.20;;;8.60;99.90;;;;;;6159051;23;20442;-76
2021/10/16 03:59:22;;;;;;;125.40;26.73;;;8.60;99.90;;;;;;6158937;23;20494;-76
2021/10/16 04:01:55;;;;;;;173.30;32.07;;;8.60;99.90;;;;;;6159227;23;20415;-76
2021/10/16 04:04:23;;;;;;;91.60;19.73;;;8.60;99.90;;;;;;6159494;23;20427;-76
2021/10/16 04:06:51;;;;;;;151.50;22.70;;;8.60;99.90;;;;;;6159410;23;20416;-76
2021/10/16 04:09:20;;;;;;;129.23;31.60;;;8.60;99.90;;;;;;6161002;23;20435;-76
2021/10/16 04:11:48;;;;;;;111.87;26.17;;;8.70;99.90;;;;;;6161011;23;20474;-75
2021/10/16 04:14:16;;;;;;;190.00;26.23;;;8.70;99.90;;;;;;6160862;23;20810;-78
2021/10/16 04:16:45;;;;;;;189.53;39.73;;;8.70;99.90;;;;;;6160809;23;20439;-76
2021/10/16 04:19:14;;;;;;;126.40;23.60;;;8.70;99.90;;;;;;6161044;23;20435;-76
2021/10/16 04:21:43;;;;;;;74.57;16.33;;;8.70;99.90;;;;;;6160939;23;20411;-76
2021/10/16 04:24:11;;;;;;;265.27;35.53;;;8.70;99.90;;;;;;6161181;23;20426;-76
2021/10/16 04:26:40;;;;;;;193.50;35.83;;;8.70;99.90;;;;;;6160963;23;20423;-76
2021/10/16 04:29:08;;;;;;;194.60;32.93;;;8.70;99.90;;;;;;6160887;23;20445;-76
2021/10/16 04:32:02;;;;;;;157.60;25.27;;;8.70;99.90;;;;;;6181779;23;20411;-76
2021/10/16 04:34:32;;;;;;;166.17;28.77;;;8.70;99.90;;;;;;6197583;23;20406;-76
2021/10/16 04:37:00;;;;;;;200.57;37.53;;;8.70;99.90;;;;;;6160742;23;20439;-76
2021/10/16 04:39:29;;;;;;;8.85;4.18;;;8.70;99.90;;;;;;6159583;23;20419;-76
2021/10/16 04:41:57;;;;;;;128.47;26.43;;;8.80;99.90;;;;;;6160897;23;20654;-75
2021/10/16 04:44:26;;;;;;;8.02;4.90;;;8.80;99.90;;;;;;6186527;23;20751;-76
2021/10/16 04:46:54;;;;;;;242.60;44.40;;;8.90;99.90;;;;;;6160827;23;20176;-76
2021/10/16 04:49:23;;;;;;;134.40;23.57;;;8.90;99.90;;;;;;6197064;23;20736;-76
2021/10/16 04:51:53;;;;;;;210.43;43.47;;;8.80;99.90;;;;;;6160632;23;20419;-76
2021/10/16 04:54:23;;;;;;;116.73;25.93;;;8.80;99.90;;;;;;6160975;23;20420;-76
2021/10/16 04:56:52;;;;;;;123.20;21.63;;;8.80;99.90;;;;;;6160662;23;20515;-76
2021/10/16 04:59:24;;;;;;;233.93;35.73;;;8.80;99.90;;;;;;6160672;23;20436;-76
2021/10/16 05:01:54;;;;;;;197.87;38.80;;;8.80;99.90;;;;;;6161017;23;20506;-76
2021/10/16 05:04:22;;;;;;;204.33;34.87;;;8.80;99.90;;;;;;6160433;23;20400;-76
2021/10/16 05:06:57;;;;;;;187.53;38.87;;;8.80;99.90;;;;;;6160586;23;20961;-76
2021/10/16 05:09:26;;;;;;;94.00;17.33;;;8.70;99.90;;;;;;6160563;23;20439;-76
2021/10/16 05:11:54;;;;;;;126.63;27.33;;;8.70;99.90;;;;;;6161055;23;20463;-76
2021/10/16 05:14:23;;;;;;;122.80;23.63;;;8.70;99.90;;;;;;6160152;23;20455;-76
2021/10/16 05:16:51;;;;;;;121.40;28.90;;;8.70;99.90;;;;;;6160371;23;20439;-76
2021/10/16 05:19:20;;;;;;;111.77;25.93;;;8.70;99.90;;;;;;6160001;23;20436;-75
2021/10/16 05:21:48;;;;;;;140.97;23.07;;;8.70;99.90;;;;;;6160369;23;20415;-75
2021/10/16 05:24:19;;;;;;;162.50;33.43;;;8.70;99.90;;;;;;6161244;23;20443;-76
2021/10/16 05:26:47;;;;;;;186.63;34.07;;;8.70;99.90;;;;;;6160258;23;20478;-76
2021/10/16 05:29:15;;;;;;;99.93;16.23;;;8.70;99.90;;;;;;6160405;23;20435;-76
2021/10/16 05:31:44;;;;;;;217.10;48.70;;;8.70;99.90;;;;;;6160437;23;20420;-76
2021/10/16 05:34:16;;;;;;;94.47;22.13;;;8.70;99.90;;;;;;6160619;23;20411;-76
2021/10/16 05:36:44;;;;;;;111.77;35.87;;;8.70;99.90;;;;;;6160236;23;20498;-76
2021/10/16 05:39:13;;;;;;;10.35;5.85;;;8.70;99.90;;;;;;6159062;23;20469;-76
2021/10/16 05:41:44;;;;;;;141.27;36.90;;;8.80;99.90;;;;;;6160706;23;20187;-76
2021/10/16 05:44:12;;;;;;;8.00;5.30;;;8.80;99.90;;;;;;6160033;23;20424;-75
2021/10/16 05:46:41;;;;;;;195.63;39.17;;;8.80;99.90;;;;;;6160143;23;20991;-76
2021/10/16 05:49:09;;;;;;;139.37;26.13;;;8.80;99.90;;;;;;6159969;23;20432;-75
2021/10/16 05:51:38;;;;;;;143.20;22.10;;;8.80;99.90;;;;;;6160356;23;20412;-76
2021/10/16 05:54:06;;;;;;;141.13;23.17;;;8.80;99.90;;;;;;6159808;23;20457;-76
2021/10/16 05:56:34;;;;;;;198.77;33.43;;;8.70;99.90;;;;;;6159866;23;20422;-76
2021/10/16 05:59:04;;;;;;;142.90;28.43;;;8.70;99.90;;;;;;6159800;23;21010;-76
2021/10/16 06:01:33;;;;;;;154.53;29.83;;;8.70;99.90;;;;;;6161279;23;20426;-76
2021/10/16 06:04:01;;;;;;;159.00;37.83;;;8.70;99.90;;;;;;6160579;23;20430;-76
2021/10/16 06:06:30;;;;;;;103.07;24.87;;;8.70;99.90;;;;;;6160513;23;20502;-74
2021/10/16 06:08:58;;;;;;;235.77;35.40;;;8.70;99.90;;;;;;6160196;23;20815;-75
2021/10/16 06:11:27;;;;;;;119.03;19.87;;;8.70;99.90;;;;;;6160290;23;20443;-75
2021/10/16 06:13:56;;;;;;;145.80;24.63;;;8.70;99.90;;;;;;6160566;23;20430;-76
2021/10/16 06:16:26;;;;;;;212.87;40.80;;;8.70;99.90;;;;;;6160067;23;20416;-75
2021/10/16 06:18:54;;;;;;;132.10;27.03;;;8.70;99.90;;;;;;6160751;23;20880;-76
2021/10/16 06:21:23;;;;;;;167.13;33.37;;;8.70;99.90;;;;;;6160819;23;20422;-75
2021/10/16 06:23:51;;;;;;;202.93;34.60;;;8.70;99.90;;;;;;6160683;23;20415;-75
2021/10/16 06:26:39;;;;;;;110.03;25.73;;;8.80;99.90;;;;;;6186866;23;20404;-76
2021/10/16 06:29:07;;;;;;;118.60;26.37;;;8.70;99.90;;;;;;6160853;23;20518;-75
2021/10/16 06:31:37;;;;;;;130.47;27.57;;;8.80;99.90;;;;;;6160796;23;20420;-75
2021/10/16 06:34:08;;;;;;;132.07;20.80;;;8.80;99.90;;;;;;6161415;23;20423;-75
2021/10/16 06:36:36;;;;;;;204.30;35.43;;;8.80;99.90;;;;;;6160053;23;20470;-75
2021/10/16 06:39:04;;;;;;;45.77;11.53;;;8.80;99.90;;;;;;6159632;23;20415;-75
2021/10/16 06:41:35;;;;;;;241.37;38.47;;;8.80;99.90;;;;;;6160956;23;20416;-75
2021/10/16 06:44:06;;;;;;;151.40;29.45;;;8.90;99.90;;;;;;6196864;23;20507;-75
2021/10/16 06:46:53;;;;;;;125.73;29.73;;;8.90;99.90;;;;;;6160388;23;20222;-74
2021/10/16 06:49:25;;;;;;;135.10;29.07;;;8.90;99.90;;;;;;6160109;23;20436;-74
2021/10/16 06:51:54;;;;;;;151.97;35.10;;;8.90;99.90;;;;;;6160666;23;20423;-75
2021/10/16 06:54:23;;;;;;;149.97;25.70;;;8.90;99.90;;;;;;6160210;23;20423;-75
2021/10/16 06:56:52;;;;;;;147.57;30.57;;;8.90;99.90;;;;;;6160865;23;20426;-75
2021/10/16 06:59:20;;;;;;;106.00;20.53;;;9.00;99.90;;;;;;6159889;23;20443;-75
2021/10/16 07:01:50;;;;;;;229.10;46.67;;;9.00;99.90;;;;;;6160267;23;20473;-75
2021/10/16 07:04:25;;;;;;;149.03;34.20;;;9.00;99.90;;;;;;6160402;23;20470;-75
2021/10/16 07:06:57;;;;;;;178.23;26.87;;;9.00;99.90;;;;;;6160187;23;20443;-75
2021/10/16 07:09:42;;;;;;;178.10;41.93;;;9.00;99.90;;;;;;6159911;23;20439;-75
2021/10/16 07:12:10;;;;;;;132.17;32.30;;;9.10;99.90;;;;;;6160255;23;20469;-75
2021/10/16 07:14:38;;;;;;;154.37;25.57;;;9.10;99.90;;;;;;6186397;23;20928;-75
2021/10/16 07:17:09;;;;;;;145.53;27.23;;;9.10;99.90;;;;;;6159916;23;20407;-75
2021/10/16 07:19:40;;;;;;;169.47;32.90;;;9.10;99.90;;;;;;6159732;23;20850;-75
2021/10/16 07:22:08;;;;;;;180.17;40.03;;;9.10;99.90;;;;;;6159841;23;20434;-74
2021/10/16 07:24:36;;;;;;;182.53;40.10;;;9.20;99.90;;;;;;6160126;23;20424;-74
2021/10/16 07:27:05;;;;;;;173.07;38.43;;;9.20;99.90;;;;;;6159797;23;20915;-74
2021/10/16 07:29:33;;;;;;;191.87;34.23;;;9.20;99.90;;;;;;6186457;23;20918;-75
2021/10/16 07:32:01;;;;;;;181.53;31.50;;;9.20;99.90;;;;;;6159728;23;20422;-76
2021/10/16 07:34:29;;;;;;;212.03;43.30;;;9.20;99.90;;;;;;6186471;23;20442;-74
2021/10/16 07:36:59;;;;;;;166.10;42.03;;;9.30;99.90;;;;;;6186699;23;20776;-75
2021/10/16 07:39:27;;;;;;;8.32;4.22;;;9.30;99.90;;;;;;6158564;23;20808;-75
2021/10/16 07:41:55;;;;;;;224.43;65.03;;;9.30;99.90;;;;;;6159978;23;20171;-74
2021/10/16 07:44:23;;;;;;;117.40;24.90;;;9.40;99.90;;;;;;6161605;23;20426;-75
2021/10/16 07:46:52;;;;;;;282.50;48.87;;;9.40;99.90;;;;;;6198241;23;20203;-75
2021/10/16 07:49:20;;;;;;;163.60;46.63;;;9.40;99.90;;;;;;6161712;23;20439;-74
2021/10/16 07:51:48;;;;;;;162.13;34.80;;;9.50;99.90;;;;;;6162097;23;20498;-75
2021/10/16 07:54:18;;;;;;;179.10;32.90;;;9.50;99.90;;;;;;6162897;23;20416;-74
2021/10/16 07:56:46;;;;;;;167.23;38.17;;;9.50;99.90;;;;;;6163134;23;20886;-75
2021/10/16 07:59:15;;;;;;;195.90;43.47;;;9.50;99.90;;;;;;6187807;23;20813;-75
2021/10/16 08:01:44;;;;;;;269.57;61.33;;;9.50;99.90;;;;;;6161916;23;20424;-75
2021/10/16 08:04:12;;;;;;;224.17;49.10;;;9.50;99.90;;;;;;6161615;23;20438;-75
2021/10/16 08:06:40;;;;;;;257.67;37.97;;;9.50;99.90;;;;;;6161641;23;20497;-75
2021/10/16 08:09:08;;;;;;;253.47;54.57;;;9.60;99.90;;;;;;6162616;23;20478;-76
2021/10/16 08:11:52;;;;;;;163.83;36.10;;;9.60;99.90;;;;;;6161509;23;20466;-76
2021/10/16 08:14:20;;;;;;;221.17;36.57;;;9.60;99.90;;;;;;6198367;23;20494;-77
2021/10/16 08:16:48;;;;;;;229.83;43.63;;;9.70;99.90;;;;;;6161925;23;20416;-77
2021/10/16 08:19:16;;;;;;;182.47;40.40;;;9.70;99.90;;;;;;6198824;23;20431;-77
2021/10/16 08:21:45;;;;;;;205.40;50.30;;;9.70;99.90;;;;;;6198323;23;20494;-77
2021/10/16 08:24:13;;;;;;;184.83;37.13;;;9.80;99.90;;;;;;6189471;23;20758;-77
2021/10/16 08:26:41;;;;;;;180.30;37.03;;;9.80;99.90;;;;;;6161744;23;20415;-77
2021/10/16 08:29:11;;;;;;;185.67;38.50;;;9.90;99.90;;;;;;6161556;23;20466;-77
2021/10/16 08:31:39;;;;;;;178.43;49.50;;;9.90;99.90;;;;;;6163067;23;20929;-79
2021/10/16 08:34:07;;;;;;;155.33;40.77;;;9.90;99.90;;;;;;6164013;23;20414;-77
2021/10/16 08:36:35;;;;;;;242.93;46.13;;;10.00;99.90;;;;;;6161310;23;20416;-76
2021/10/16 08:39:04;;;;;;;214.50;45.30;;;10.00;99.90;;;;;;6161357;23;20470;-77
2021/10/16 08:41:34;;;;;;;199.97;50.10;;;10.10;99.90;;;;;;6161958;23;20946;-77
2021/10/16 08:44:02;;;;;;;7.68;4.30;;;10.10;99.90;;;;;;6160336;23;20438;-76
2021/10/16 08:46:32;;;;;;;286.97;72.53;;;10.20;99.90;;;;;;6187818;23;20739;-76
2021/10/16 08:49:03;;;;;;;285.37;84.27;;;10.20;99.90;;;;;;6161711;23;20435;-77
2021/10/16 08:51:31;;;;;;;248.67;66.83;;;10.30;99.90;;;;;;6161350;23;20400;-77
2021/10/16 08:53:59;;;;;;;198.97;45.77;;;10.30;99.90;;;;;;6197981;23;20407;-77
2021/10/16 08:56:28;;;;;;;203.03;47.43;;;10.30;99.90;;;;;;6161717;23;20895;-77
2021/10/16 08:58:56;;;;;;;230.70;52.47;;;10.40;99.90;;;;;;6161581;23;20447;-77
2021/10/16 09:01:24;;;;;;;125.03;29.43;;;10.40;99.90;;;;;;6161387;23;20443;-77
2021/10/16 09:03:55;;;;;;;290.43;60.03;;;10.40;99.90;;;;;;6161423;23;20419;-77
2021/10/16 09:06:27;;;;;;;265.70;70.87;;;10.40;99.90;;;;;;6161339;23;20494;-76
2021/10/16 09:08:57;;;;;;;308.13;72.20;;;10.50;99.90;;;;;;6161339;23;20440;-77
2021/10/16 09:11:30;;;;;;;236.77;80.63;;;10.50;99.90;;;;;;6197949;23;20486;-76
2021/10/16 09:14:01;;;;;;;268.20;72.40;;;10.60;99.90;;;;;;6161508;23;20416;-77
2021/10/16 09:16:40;;;;;;;339.60;75.83;;;10.70;99.90;;;;;;6161526;23;20411;-77
2021/10/16 09:19:12;;;;;;;259.90;72.00;;;10.70;99.90;;;;;;6161128;23;20435;-76
2021/10/16 09:21:43;;;;;;;390.33;106.03;;;10.70;99.90;;;;;;6161124;23;20407;-77
2021/10/16 09:24:18;;;;;;;361.90;84.93;;;10.80;99.90;;;;;;6160995;23;20466;-77
2021/10/16 09:26:49;;;;;;;356.97;77.37;;;10.80;99.90;;;;;;6160710;23;20497;-78
2021/10/16 09:29:19;;;;;;;448.97;94.40;;;10.90;99.90;;;;;;6160428;23;20851;-78
2021/10/16 09:31:50;;;;;;;412.40;98.20;;;10.90;99.90;;;;;;6160109;23;20422;-77
2021/10/16 09:34:28;;;;;;;8.45;3.95;;;10.90;99.90;;;;;;6159521;23;20506;-78
2021/10/16 09:37:06;;;;;;;105.37;58.23;;;11.00;99.90;;;;;;6197190;23;20164;-78
2021/10/16 09:39:36;;;;;;;11.53;6.63;;;11.10;99.90;;;;;;6196160;23;20411;-77
2021/10/16 09:42:04;;;;;;;108.73;70.13;;;11.10;99.90;;;;;;6160392;23;20447;-77
2021/10/16 09:44:35;;;;;;;228.70;107.60;;;11.20;99.90;;;;;;6160074;23;20510;-78
2021/10/16 09:47:11;;;;;;;256.73;80.53;;;11.20;99.90;;;;;;6160292;23;20522;-78
2021/10/16 09:49:42;;;;;;;246.40;95.30;;;11.20;99.90;;;;;;6160290;23;20439;-78
2021/10/16 09:52:12;;;;;;;344.57;105.17;;;11.30;99.90;;;;;;6160289;23;20415;-77
2021/10/16 09:54:42;;;;;;;538.73;139.23;;;11.30;99.90;;;;;;6186854;23;20408;-77
2021/10/16 09:57:11;;;;;;;354.67;109.13;;;11.30;99.90;;;;;;6160154;23;20416;-78
2021/10/16 09:59:41;;;;;;;461.23;142.83;;;11.40;99.90;;;;;;6159788;23;20783;-77
2021/10/16 10:02:10;;;;;;;321.53;93.83;;;11.40;99.90;;;;;;6159959;23;20418;-77
2021/10/16 10:04:41;;;;;;;475.60;144.53;;;11.40;99.90;;;;;;6159705;23;20467;-77
2021/10/16 10:07:10;;;;;;;448.80;131.63;;;11.50;99.90;;;;;;6160112;23;20435;-77
2021/10/16 10:09:41;;;;;;;435.73;134.70;;;11.50;99.90;;;;;;6159766;23;20432;-77
2021/10/16 10:12:10;;;;;;;512.30;167.70;;;11.60;99.90;;;;;;6160135;23;20458;-78
2021/10/16 10:14:40;;;;;;;574.03;176.77;;;11.60;99.90;;;;;;6159979;23;20928;-78
2021/10/16 10:17:10;;;;;;;410.50;129.43;;;11.60;99.90;;;;;;6159960;23;20451;-77
2021/10/16 10:19:43;;;;;;;166.63;67.53;;;11.70;99.90;;;;;;6159521;23;20440;-77
2021/10/16 10:22:13;;;;;;;413.07;127.80;;;11.70;99.90;;;;;;6160383;23;20418;-78
2021/10/16 10:25:04;;;;;;;141.07;54.20;;;11.70;99.90;;;;;;6160034;23;20891;-77
2021/10/16 10:27:45;;;;;;;71.47;34.95;;;11.80;99.90;;;;;;6154108;23;20515;-77
2021/10/16 10:30:41;;;;;;;1999.90;969.97;;;11.90;99.90;;;;;;6196460;23;20153;-77
2021/10/16 10:33:25;;;;;;;236.85;167.48;;;11.90;99.90;;;;;;6186411;23;20743;-77
2021/10/16 10:36:26;;;;;;;1999.90;999.90;;;11.90;99.90;;;;;;6159997;23;20219;-77
2021/10/16 10:39:01;;;;;;;404.57;163.90;;;12.00;99.90;;;;;;6159873;23;20447;-77
2021/10/16 10:41:40;;;;;;;659.47;206.13;;;12.00;99.90;;;;;;6159967;23;20929;-77
2021/10/16 10:44:28;;;;;;;367.37;130.53;;;12.00;99.90;;;;;;6186926;23;20396;-78
2021/10/16 10:47:23;;;;;;;388.27;112.27;;;12.00;99.90;;;;;;6159208;23;20759;-77
2021/10/16 10:49:57;;;;;;;570.77;191.43;;;12.00;99.90;;;;;;6196516;23;20469;-79
2021/10/16 10:52:27;;;;;;;490.77;166.20;;;12.10;99.90;;;;;;6162039;23;20419;-80
2021/10/16 10:55:13;;;;;;;599.27;211.53;;;12.10;99.90;;;;;;6196547;23;20384;-77
2021/10/16 10:57:57;;;;;;;535.90;175.83;;;12.10;99.90;;;;;;6160615;23;20415;-77
2021/10/16 11:00:39;;;;;;;370.43;137.83;;;12.10;99.90;;;;;;6159386;23;20468;-77
2021/10/16 11:03:44;;;;;;;391.10;153.33;;;12.10;99.90;;;;;;6186342;23;20400;-77
2021/10/16 11:06:18;;;;;;;522.87;180.37;;;12.10;99.90;;;;;;6195759;23;21003;-77
2021/10/16 11:08:49;;;;;;;237.37;101.53;;;12.10;99.90;;;;;;6160028;23;20443;-77
2021/10/16 11:11:19;;;;;;;416.50;154.17;;;12.10;99.90;;;;;;6159448;23;20814;-77
2021/10/16 11:13:47;;;;;;;1001.27;304.03;;;12.20;99.90;;;;;;6196063;23;20490;-78
2021/10/16 11:16:15;;;;;;;1093.60;350.20;;;12.20;99.90;;;;;;6159147;23;20422;-78
2021/10/16 11:18:43;;;;;;;32.40;22.05;;;12.20;99.90;;;;;;6158832;23;20423;-76
2021/10/16 11:21:12;;;;;;;1374.30;443.23;;;12.20;99.90;;;;;;6159508;23;20270;-77
2021/10/16 11:23:42;;;;;;;1619.27;489.90;;;12.20;99.90;;;;;;6195507;23;20482;-77
2021/10/16 11:26:12;;;;;;;17.55;15.27;;;12.20;99.90;;;;;;6184726;23;20442;-77
2021/10/16 11:28:43;;;;;;;1999.90;999.90;;;12.30;99.90;;;;;;6196269;23;20271;-77
2021/10/16 11:31:11;;;;;;;1999.90;999.90;;;12.30;99.90;;;;;;6159340;23;20419;-78
2021/10/16 11:33:40;;;;;;;1999.90;999.90;;;12.30;99.90;;;;;;6185783;23;20408;-77
2021/10/16 11:36:13;;;;;;;1999.90;999.90;;;12.30;99.90;;;;;;6159416;23;20415;-77
2021/10/16 11:38:41;;;;;;;1694.53;547.70;;;12.30;99.90;;;;;;6159224;23;20435;-77
2021/10/16 11:41:12;;;;;;;1999.90;697.13;;;12.30;99.90;;;;;;6159004;23;20435;-77
2021/10/16 11:43:41;;;;;;;1583.90;444.30;;;12.30;99.90;;;;;;6159328;23;20498;-77
2021/10/16 11:46:17;;;;;;;1108.77;332.57;;;12.30;99.90;;;;;;6185706;23;20554;-76
2021/10/16 11:48:46;;;;;;;1019.00;288.13;;;12.30;99.90;;;;;;6196064;23;20415;-77
2021/10/16 11:51:14;;;;;;;1611.10;423.87;;;12.30;99.90;;;;;;6159259;23;20906;-77
2021/10/16 11:53:44;;;;;;;1489.37;391.13;;;12.40;99.90;;;;;;6159168;23;20419;-77
2021/10/16 11:56:15;;;;;;;1058.43;324.67;;;12.30;99.90;;;;;;6185922;23;20438;-77
2021/10/16 11:58:44;;;;;;;1865.13;555.93;;;12.30;99.90;;;;;;6195609;23;20486;-77
2021/10/16 12:01:13;;;;;;;1996.03;578.63;;;12.40;99.90;;;;;;6159071;23;21025;-77
2021/10/16 12:03:43;;;;;;;1661.17;457.93;;;12.40;99.90;;;;;;6159013;23;20419;-77
2021/10/16 12:06:13;;;;;;;1999.90;658.90;;;12.40;99.90;;;;;;6159189;23;20455;-77
2021/10/16 12:08:43;;;;;;;1999.90;954.00;;;12.40;99.90;;;;;;6159209;23;20949;-77
2021/10/16 12:11:18;;;;;;;1914.53;552.73;;;12.40;99.90;;;;;;6159156;23;20491;-77
2021/10/16 12:13:57;;;;;;;1999.90;568.80;;;12.40;99.90;;;;;;6185455;23;20720;-77
2021/10/16 12:16:33;;;;;;;71.70;60.78;;;12.40;99.90;;;;;;6184255;23;20494;-77
2021/10/16 12:19:04;;;;;;;1999.90;988.07;;;12.50;99.90;;;;;;6185426;23;20726;-77
2021/10/16 12:21:34;;;;;;;1999.90;898.90;;;12.50;99.90;;;;;;6158934;23;20481;-77
2021/10/16 12:24:03;;;;;;;1999.90;999.90;;;12.50;99.90;;;;;;6159181;23;20434;-77
2021/10/16 12:26:33;;;;;;;1999.90;994.33;;;12.50;99.90;;;;;;6159441;23;20416;-77
2021/10/16 12:29:05;;;;;;;1999.90;999.90;;;12.50;99.90;;;;;;6160444;23;20994;-77
2021/10/16 12:31:44;;;;;;;1999.90;955.23;;;12.50;99.90;;;;;;6160850;23;20412;-76
2021/10/16 12:34:18;;;;;;;1999.90;556.43;;;12.50;99.90;;;;;;6160762;23;20407;-77
2021/10/16 12:36:54;;;;;;;1999.90;474.00;;;12.50;99.90;;;;;;6160780;23;20419;-77
2021/10/16 12:39:28;;;;;;;1999.90;449.20;;;12.50;99.90;;;;;;6197118;23;20474;-77
2021/10/16 12:42:09;;;;;;;1359.40;352.13;;;12.50;99.90;;;;;;6197508;23;20415;-77